sensor_id;sensor_type;location;lat;lon;timestamp;pressure;altitude;pressure_sealevel;temperature;humidity
20027;BME280;10174;42.688;23.344;2023-09-19T00:00:45;95691.50;;;17.05;77.03
20027;BME280;10174;42.688;23.344;2023-09-19T00:03:12;95609.25;;;16.53;77.25
20027;BME280;10174;42.688;23.344;2023-09-19T00:05:38;95692.38;;;17.01;77.07
20027;BME280;10174;42.688;23.344;2023-09-19T00:08:04;95710.06;;;16.98;77.54
20027;BME280;10174;42.688;23.344;2023-09-19T00:10:31;95677.38;;;16.89;77.92
20027;BME280;10174;42.688;23.344;2023-09-19T00:12:58;95670.66;;;16.82;78.16
20027;BME280;10174;42.688;23.344;2023-09-19T00:15:31;95697.59;;;16.97;78.01
20027;BME280;10174;42.688;23.344;2023-09-19T00:18:01;95697.69;;;16.92;78.11
20027;BME280;10174;42.688;23.344;2023-09-19T00:20:26;95688.31;;;16.79;78.98
20027;BME280;10174;42.688;23.344;2023-09-19T00:22:54;95634.59;;;16.43;79.20
20027;BME280;10174;42.688;23.344;2023-09-19T00:25:20;95694.00;;;16.83;79.78
20027;BME280;10174;42.688;23.344;2023-09-19T00:27:46;95685.56;;;16.84;79.54
20027;BME280;10174;42.688;23.344;2023-09-19T00:30:13;95677.03;;;16.72;79.16
20027;BME280;10174;42.688;23.344;2023-09-19T00:32:45;95688.31;;;16.79;79.14
20027;BME280;10174;42.688;23.344;2023-09-19T00:35:12;95617.22;;;16.44;78.51
20027;BME280;10174;42.688;23.344;2023-09-19T00:37:39;95586.94;;;16.18;79.20
20027;BME280;10174;42.688;23.344;2023-09-19T00:40:08;95687.75;;;16.82;79.63
20027;BME280;10174;42.688;23.344;2023-09-19T00:42:49;95674.25;;;16.77;80.01
20027;BME280;10174;42.688;23.344;2023-09-19T00:45:17;95676.69;;;16.79;79.81
20027;BME280;10174;42.688;23.344;2023-09-19T00:47:50;95600.59;;;16.32;80.17
20027;BME280;10174;42.688;23.344;2023-09-19T00:50:22;95639.88;;;16.53;80.58
20027;BME280;10174;42.688;23.344;2023-09-19T00:52:50;95648.00;;;16.53;80.62
20027;BME280;10174;42.688;23.344;2023-09-19T00:55:18;95666.34;;;16.62;81.21
20027;BME280;10174;42.688;23.344;2023-09-19T00:57:45;95680.03;;;16.70;81.34
20027;BME280;10174;42.688;23.344;2023-09-19T01:00:11;95680.84;;;16.71;81.20
20027;BME280;10174;42.688;23.344;2023-09-19T01:02:41;95662.69;;;16.52;80.54
20027;BME280;10174;42.688;23.344;2023-09-19T01:05:08;95679.38;;;16.60;81.65
20027;BME280;10174;42.688;23.344;2023-09-19T01:07:33;95637.44;;;16.33;82.03
20027;BME280;10174;42.688;23.344;2023-09-19T01:10:00;95668.59;;;16.54;81.81
20027;BME280;10174;42.688;23.344;2023-09-19T01:12:34;95681.94;;;16.51;81.96
20027;BME280;10174;42.688;23.344;2023-09-19T01:17:59;95673.06;;;16.45;82.33
20027;BME280;10174;42.688;23.344;2023-09-19T01:20:39;95683.41;;;16.43;83.04
20027;BME280;10174;42.688;23.344;2023-09-19T01:23:23;95663.47;;;16.34;82.46
20027;BME280;10174;42.688;23.344;2023-09-19T01:28:54;95686.59;;;16.26;83.67
20027;BME280;10174;42.688;23.344;2023-09-19T01:31:31;95684.41;;;16.28;83.76
20027;BME280;10174;42.688;23.344;2023-09-19T01:34:02;95665.91;;;16.11;83.92
20027;BME280;10174;42.688;23.344;2023-09-19T01:36:40;95675.72;;;16.26;83.43
20027;BME280;10174;42.688;23.344;2023-09-19T01:39:11;95664.22;;;16.15;83.85
20027;BME280;10174;42.688;23.344;2023-09-19T01:41:45;95675.59;;;16.17;84.31
20027;BME280;10174;42.688;23.344;2023-09-19T01:44:17;95651.44;;;15.97;85.17
20027;BME280;10174;42.688;23.344;2023-09-19T01:46:47;95668.03;;;16.14;84.22
20027;BME280;10174;42.688;23.344;2023-09-19T01:49:31;95646.25;;;16.00;84.41
20027;BME280;10174;42.688;23.344;2023-09-19T01:52:11;95680.47;;;16.15;84.70
20027;BME280;10174;42.688;23.344;2023-09-19T01:54:52;95678.34;;;16.12;84.80
20027;BME280;10174;42.688;23.344;2023-09-19T01:57:22;95669.41;;;16.12;84.42
20027;BME280;10174;42.688;23.344;2023-09-19T01:59:54;95682.78;;;16.03;84.84
20027;BME280;10174;42.688;23.344;2023-09-19T02:02:22;95617.06;;;15.68;84.95
20027;BME280;10174;42.688;23.344;2023-09-19T02:04:49;95647.91;;;15.72;85.32
20027;BME280;10174;42.688;23.344;2023-09-19T02:07:16;95665.69;;;15.83;85.75
20027;BME280;10174;42.688;23.344;2023-09-19T02:09:42;95661.88;;;15.84;85.67
20027;BME280;10174;42.688;23.344;2023-09-19T02:12:09;95679.56;;;16.01;85.47
20027;BME280;10174;42.688;23.344;2023-09-19T02:14:35;95677.50;;;15.93;85.91
20027;BME280;10174;42.688;23.344;2023-09-19T02:17:02;95668.84;;;15.91;85.82
20027;BME280;10174;42.688;23.344;2023-09-19T02:19:32;95591.66;;;15.40;85.43
20027;BME280;10174;42.688;23.344;2023-09-19T02:21:59;95659.75;;;15.81;85.28
20027;BME280;10174;42.688;23.344;2023-09-19T02:24:25;95603.00;;;15.42;85.73
20027;BME280;10174;42.688;23.344;2023-09-19T02:26:52;95570.47;;;15.18;85.89
20027;BME280;10174;42.688;23.344;2023-09-19T02:29:17;95656.81;;;15.73;86.30
20027;BME280;10174;42.688;23.344;2023-09-19T02:31:43;95678.41;;;15.83;86.75
20027;BME280;10174;42.688;23.344;2023-09-19T02:34:08;95646.81;;;15.73;86.61
20027;BME280;10174;42.688;23.344;2023-09-19T02:36:35;95669.97;;;15.90;85.52
20027;BME280;10174;42.688;23.344;2023-09-19T02:39:01;95659.16;;;15.84;86.04
20027;BME280;10174;42.688;23.344;2023-09-19T02:41:26;95637.13;;;15.67;86.21
20027;BME280;10174;42.688;23.344;2023-09-19T02:43:54;95647.31;;;15.75;86.44
20027;BME280;10174;42.688;23.344;2023-09-19T02:46:20;95642.47;;;15.72;86.78
20027;BME280;10174;42.688;23.344;2023-09-19T02:48:45;95652.84;;;15.65;87.54
20027;BME280;10174;42.688;23.344;2023-09-19T02:51:11;95628.31;;;15.56;87.41
20027;BME280;10174;42.688;23.344;2023-09-19T02:53:36;95639.88;;;15.62;87.56
20027;BME280;10174;42.688;23.344;2023-09-19T02:56:02;95581.31;;;15.18;87.55
20027;BME280;10174;42.688;23.344;2023-09-19T02:58:29;95635.72;;;15.45;87.71
20027;BME280;10174;42.688;23.344;2023-09-19T03:00:55;95623.72;;;15.27;88.58
20027;BME280;10174;42.688;23.344;2023-09-19T03:03:21;95648.59;;;15.29;89.29
20027;BME280;10174;42.688;23.344;2023-09-19T03:05:48;95614.69;;;15.08;89.93
20027;BME280;10174;42.688;23.344;2023-09-19T03:08:32;95639.53;;;15.15;90.16
20027;BME280;10174;42.688;23.344;2023-09-19T03:11:01;95548.88;;;14.49;90.85
20027;BME280;10174;42.688;23.344;2023-09-19T03:13:28;95631.31;;;14.91;91.35
20027;BME280;10174;42.688;23.344;2023-09-19T03:15:56;95640.53;;;14.90;91.85
20027;BME280;10174;42.688;23.344;2023-09-19T03:18:24;95600.16;;;14.64;91.94
20027;BME280;10174;42.688;23.344;2023-09-19T03:20:55;95550.09;;;14.27;92.13
20027;BME280;10174;42.688;23.344;2023-09-19T03:23:21;95628.75;;;14.75;92.79
20027;BME280;10174;42.688;23.344;2023-09-19T03:25:47;95590.44;;;14.63;92.29
20027;BME280;10174;42.688;23.344;2023-09-19T03:28:13;95626.22;;;14.84;92.19
20027;BME280;10174;42.688;23.344;2023-09-19T03:30:40;95613.16;;;14.62;92.47
20027;BME280;10174;42.688;23.344;2023-09-19T03:33:06;95637.19;;;14.64;93.55
20027;BME280;10174;42.688;23.344;2023-09-19T03:35:31;95638.06;;;14.54;94.26
20027;BME280;10174;42.688;23.344;2023-09-19T03:37:57;95625.38;;;14.49;94.71
20027;BME280;10174;42.688;23.344;2023-09-19T03:40:22;95622.41;;;14.51;94.43
20027;BME280;10174;42.688;23.344;2023-09-19T03:42:48;95617.78;;;14.51;94.17
20027;BME280;10174;42.688;23.344;2023-09-19T03:45:14;95647.44;;;14.67;94.34
20027;BME280;10174;42.688;23.344;2023-09-19T03:47:41;95658.28;;;14.67;93.69
20027;BME280;10174;42.688;23.344;2023-09-19T03:50:07;95583.59;;;14.26;93.92
20027;BME280;10174;42.688;23.344;2023-09-19T03:52:35;95652.06;;;14.61;94.14
20027;BME280;10174;42.688;23.344;2023-09-19T03:55:00;95639.22;;;14.37;94.40
20027;BME280;10174;42.688;23.344;2023-09-19T03:57:27;95661.34;;;14.45;94.77
20027;BME280;10174;42.688;23.344;2023-09-19T03:59:54;95671.34;;;14.44;94.99
20027;BME280;10174;42.688;23.344;2023-09-19T04:02:21;95581.72;;;13.77;95.71
20027;BME280;10174;42.688;23.344;2023-09-19T04:04:52;95556.91;;;13.64;96.10
20027;BME280;10174;42.688;23.344;2023-09-19T04:07:18;95656.34;;;14.17;96.16
20027;BME280;10174;42.688;23.344;2023-09-19T04:09:44;95658.22;;;14.22;96.93
20027;BME280;10174;42.688;23.344;2023-09-19T04:12:11;95668.47;;;14.25;97.02
20027;BME280;10174;42.688;23.344;2023-09-19T04:14:37;95656.31;;;14.22;96.87
20027;BME280;10174;42.688;23.344;2023-09-19T04:17:03;95659.25;;;14.26;96.69
20027;BME280;10174;42.688;23.344;2023-09-19T04:19:30;95645.78;;;14.21;95.89
20027;BME280;10174;42.688;23.344;2023-09-19T04:21:55;95664.66;;;14.26;95.92
20027;BME280;10174;42.688;23.344;2023-09-19T04:24:21;95673.56;;;14.32;96.30
20027;BME280;10174;42.688;23.344;2023-09-19T04:26:46;95642.00;;;14.22;96.26
20027;BME280;10174;42.688;23.344;2023-09-19T04:29:12;95640.34;;;14.31;95.82
20027;BME280;10174;42.688;23.344;2023-09-19T04:31:39;95680.25;;;14.50;95.82
20027;BME280;10174;42.688;23.344;2023-09-19T04:34:05;95666.13;;;14.58;95.86
20027;BME280;10174;42.688;23.344;2023-09-19T04:36:31;95666.66;;;14.65;95.40
20027;BME280;10174;42.688;23.344;2023-09-19T04:38:56;95666.03;;;14.78;94.69
20027;BME280;10174;42.688;23.344;2023-09-19T04:41:22;95663.28;;;14.89;93.82
20027;BME280;10174;42.688;23.344;2023-09-19T04:43:47;95644.34;;;14.89;93.35
20027;BME280;10174;42.688;23.344;2023-09-19T04:46:14;95622.50;;;14.75;92.96
20027;BME280;10174;42.688;23.344;2023-09-19T04:48:40;95659.81;;;15.12;92.60
20027;BME280;10174;42.688;23.344;2023-09-19T04:51:06;95638.19;;;15.12;91.83
20027;BME280;10174;42.688;23.344;2023-09-19T04:53:32;95646.66;;;15.30;90.86
20027;BME280;10174;42.688;23.344;2023-09-19T04:55:57;95640.88;;;15.42;90.11
20027;BME280;10174;42.688;23.344;2023-09-19T04:58:23;95627.13;;;15.38;89.79
20027;BME280;10174;42.688;23.344;2023-09-19T05:00:48;95649.09;;;15.61;89.17
20027;BME280;10174;42.688;23.344;2023-09-19T05:03:16;95643.56;;;15.71;88.21
20027;BME280;10174;42.688;23.344;2023-09-19T05:05:42;95622.47;;;15.68;87.60
20027;BME280;10174;42.688;23.344;2023-09-19T05:08:08;95626.06;;;15.88;87.40
20027;BME280;10174;42.688;23.344;2023-09-19T05:10:35;95644.84;;;16.03;86.71
20027;BME280;10174;42.688;23.344;2023-09-19T05:13:03;95648.53;;;16.12;86.28
20027;BME280;10174;42.688;23.344;2023-09-19T05:15:29;95629.63;;;16.07;85.07
20027;BME280;10174;42.688;23.344;2023-09-19T05:17:55;95610.16;;;16.05;84.71
20027;BME280;10174;42.688;23.344;2023-09-19T05:20:21;95554.94;;;15.82;84.40
20027;BME280;10174;42.688;23.344;2023-09-19T05:22:58;95613.78;;;16.38;83.40
20027;BME280;10174;42.688;23.344;2023-09-19T05:25:26;95633.56;;;16.58;83.11
20027;BME280;10174;42.688;23.344;2023-09-19T05:27:53;95642.75;;;16.81;82.38
20027;BME280;10174;42.688;23.344;2023-09-19T05:30:18;95631.53;;;16.88;80.97
20027;BME280;10174;42.688;23.344;2023-09-19T05:32:45;95622.03;;;16.85;80.88
20027;BME280;10174;42.688;23.344;2023-09-19T05:35:10;95626.06;;;17.07;80.37
20027;BME280;10174;42.688;23.344;2023-09-19T05:37:38;95626.09;;;17.21;79.60
20027;BME280;10174;42.688;23.344;2023-09-19T05:40:04;95616.72;;;17.13;79.24
20027;BME280;10174;42.688;23.344;2023-09-19T05:42:35;95606.69;;;17.14;79.25
20027;BME280;10174;42.688;23.344;2023-09-19T05:45:01;95602.25;;;17.18;79.11
20027;BME280;10174;42.688;23.344;2023-09-19T05:47:44;95626.78;;;17.45;78.05
20027;BME280;10174;42.688;23.344;2023-09-19T05:50:11;95620.03;;;17.43;78.56
20027;BME280;10174;42.688;23.344;2023-09-19T05:52:37;95623.66;;;17.52;78.37
20027;BME280;10174;42.688;23.344;2023-09-19T05:55:06;95630.00;;;17.61;77.80
20027;BME280;10174;42.688;23.344;2023-09-19T05:57:35;95624.38;;;17.58;77.34
20027;BME280;10174;42.688;23.344;2023-09-19T06:00:01;95627.41;;;17.84;76.37
20027;BME280;10174;42.688;23.344;2023-09-19T06:02:26;95604.34;;;17.68;76.13
20027;BME280;10174;42.688;23.344;2023-09-19T06:04:54;95627.31;;;18.03;75.42
20027;BME280;10174;42.688;23.344;2023-09-19T06:07:21;95625.31;;;17.95;75.64
20027;BME280;10174;42.688;23.344;2023-09-19T06:09:51;95615.44;;;17.85;75.87
20027;BME280;10174;42.688;23.344;2023-09-19T06:12:18;95613.75;;;17.89;75.67
20027;BME280;10174;42.688;23.344;2023-09-19T06:14:44;95538.66;;;17.38;76.11
20027;BME280;10174;42.688;23.344;2023-09-19T06:17:09;95606.88;;;17.78;76.18
20027;BME280;10174;42.688;23.344;2023-09-19T06:19:35;95563.66;;;17.21;76.59
20027;BME280;10174;42.688;23.344;2023-09-19T06:22:01;95602.34;;;17.59;77.31
20027;BME280;10174;42.688;23.344;2023-09-19T06:24:27;95621.47;;;17.82;77.34
20027;BME280;10174;42.688;23.344;2023-09-19T06:26:52;95600.97;;;17.76;76.44
20027;BME280;10174;42.688;23.344;2023-09-19T06:29:18;95612.66;;;17.90;76.72
20027;BME280;10174;42.688;23.344;2023-09-19T06:31:45;95614.84;;;18.16;75.64
20027;BME280;10174;42.688;23.344;2023-09-19T06:34:12;95600.06;;;17.94;75.44
20027;BME280;10174;42.688;23.344;2023-09-19T06:36:39;95604.06;;;18.11;75.22
20027;BME280;10174;42.688;23.344;2023-09-19T06:39:06;95530.31;;;17.76;74.75
20027;BME280;10174;42.688;23.344;2023-09-19T06:41:32;95601.63;;;18.37;74.09
20027;BME280;10174;42.688;23.344;2023-09-19T06:43:57;95603.13;;;18.43;74.14
20027;BME280;10174;42.688;23.344;2023-09-19T06:46:23;95593.88;;;18.30;74.30
20027;BME280;10174;42.688;23.344;2023-09-19T06:48:48;95593.25;;;18.33;72.99
20027;BME280;10174;42.688;23.344;2023-09-19T06:51:14;95552.63;;;18.14;72.81
20027;BME280;10174;42.688;23.344;2023-09-19T06:53:41;95600.94;;;18.31;72.98
20027;BME280;10174;42.688;23.344;2023-09-19T06:56:06;95496.50;;;17.68;72.94
20027;BME280;10174;42.688;23.344;2023-09-19T06:58:32;95620.31;;;18.52;73.13
20027;BME280;10174;42.688;23.344;2023-09-19T07:01:00;95594.84;;;18.48;72.50
20027;BME280;10174;42.688;23.344;2023-09-19T07:03:26;95553.13;;;18.53;71.46
20027;BME280;10174;42.688;23.344;2023-09-19T07:05:53;95527.16;;;18.47;70.85
20027;BME280;10174;42.688;23.344;2023-09-19T07:08:21;95590.00;;;18.82;70.60
20027;BME280;10174;42.688;23.344;2023-09-19T07:10:46;95599.28;;;19.03;70.00
20027;BME280;10174;42.688;23.344;2023-09-19T07:13:16;95593.13;;;18.89;70.67
20027;BME280;10174;42.688;23.344;2023-09-19T07:15:43;95622.88;;;19.08;69.29
20027;BME280;10174;42.688;23.344;2023-09-19T07:18:16;95607.09;;;18.96;69.95
20027;BME280;10174;42.688;23.344;2023-09-19T07:20:45;95624.34;;;18.92;71.13
20027;BME280;10174;42.688;23.344;2023-09-19T07:23:21;95580.47;;;18.93;70.86
20027;BME280;10174;42.688;23.344;2023-09-19T07:25:48;95600.59;;;19.37;68.47
20027;BME280;10174;42.688;23.344;2023-09-19T07:28:14;95627.34;;;19.58;68.55
20027;BME280;10174;42.688;23.344;2023-09-19T14:37:27;95296.56;;;25.28;50.86
20027;BME280;10174;42.688;23.344;2023-09-19T14:41:03;95249.78;;;25.24;50.70
20027;BME280;10174;42.688;23.344;2023-09-19T14:43:30;95282.94;;;25.67;48.20
20027;BME280;10174;42.688;23.344;2023-09-19T14:46:07;95221.53;;;25.43;47.35
20027;BME280;10174;42.688;23.344;2023-09-19T14:48:33;95280.31;;;25.74;49.01
20027;BME280;10174;42.688;23.344;2023-09-19T14:51:06;95276.75;;;25.74;49.34
20027;BME280;10174;42.688;23.344;2023-09-19T14:53:34;95278.06;;;25.60;48.71
20027;BME280;10174;42.688;23.344;2023-09-19T14:56:01;95276.13;;;25.61;48.86
20027;BME280;10174;42.688;23.344;2023-09-19T14:58:33;95277.19;;;25.76;48.50
20027;BME280;10174;42.688;23.344;2023-09-19T15:01:09;95271.31;;;25.77;49.59
20027;BME280;10174;42.688;23.344;2023-09-19T15:03:35;95217.41;;;25.34;49.92
20027;BME280;10174;42.688;23.344;2023-09-19T15:06:11;95260.63;;;25.72;50.09
20027;BME280;10174;42.688;23.344;2023-09-19T15:08:45;95260.31;;;25.77;49.01
20027;BME280;10174;42.688;23.344;2023-09-19T15:11:15;95256.78;;;25.77;49.07
20027;BME280;10174;42.688;23.344;2023-09-19T15:13:46;95264.53;;;25.71;49.75
20027;BME280;10174;42.688;23.344;2023-09-19T15:16:12;95246.13;;;25.56;50.81
20027;BME280;10174;42.688;23.344;2023-09-19T15:18:39;95260.03;;;25.63;50.68
20027;BME280;10174;42.688;23.344;2023-09-19T15:21:07;95258.75;;;25.57;50.88
20027;BME280;10174;42.688;23.344;2023-09-19T15:23:34;95262.13;;;25.70;50.20
20027;BME280;10174;42.688;23.344;2023-09-19T15:26:02;95245.34;;;25.55;51.44
20027;BME280;10174;42.688;23.344;2023-09-19T15:28:28;95176.22;;;25.18;51.35
20027;BME280;10174;42.688;23.344;2023-09-19T15:31:02;95232.03;;;25.57;50.92
20027;BME280;10174;42.688;23.344;2023-09-19T15:33:28;95258.22;;;25.51;51.55
20027;BME280;10174;42.688;23.344;2023-09-19T15:36:04;95254.13;;;25.61;51.15
20027;BME280;10174;42.688;23.344;2023-09-19T15:38:31;95245.72;;;25.54;51.11
20027;BME280;10174;42.688;23.344;2023-09-19T15:40:57;95249.97;;;25.51;50.50
20027;BME280;10174;42.688;23.344;2023-09-19T15:43:23;95263.88;;;25.58;50.87
20027;BME280;10174;42.688;23.344;2023-09-19T15:45:49;95283.44;;;25.53;51.88
20027;BME280;10174;42.688;23.344;2023-09-19T15:48:15;95233.66;;;25.23;51.54
20027;BME280;10174;42.688;23.344;2023-09-19T15:50:41;95277.69;;;25.42;51.04
20027;BME280;10174;42.688;23.344;2023-09-19T15:53:07;95263.59;;;25.28;51.28
20027;BME280;10174;42.688;23.344;2023-09-19T15:55:39;95277.25;;;25.40;51.04
20027;BME280;10174;42.688;23.344;2023-09-19T15:58:05;95282.16;;;25.15;51.78
20027;BME280;10174;42.688;23.344;2023-09-19T16:00:33;95293.31;;;25.22;51.23
20027;BME280;10174;42.688;23.344;2023-09-19T16:03:02;95281.31;;;24.95;51.66
20027;BME280;10174;42.688;23.344;2023-09-19T16:05:28;95300.34;;;25.04;52.00
20027;BME280;10174;42.688;23.344;2023-09-19T16:08:03;95279.00;;;24.97;51.74
20027;BME280;10174;42.688;23.344;2023-09-19T16:10:29;95283.00;;;24.84;52.23
20027;BME280;10174;42.688;23.344;2023-09-19T16:12:54;95299.22;;;24.73;53.22
20027;BME280;10174;42.688;23.344;2023-09-19T16:15:19;95281.38;;;24.51;53.50
20027;BME280;10174;42.688;23.344;2023-09-19T16:17:46;95219.81;;;24.04;53.69
20027;BME280;10174;42.688;23.344;2023-09-19T16:20:11;95276.22;;;24.33;54.10
20027;BME280;10174;42.688;23.344;2023-09-19T16:22:40;95284.53;;;24.21;54.85
20027;BME280;10174;42.688;23.344;2023-09-19T16:25:06;95289.66;;;24.07;55.43
20027;BME280;10174;42.688;23.344;2023-09-19T16:27:32;95297.72;;;23.87;56.59
20027;BME280;10174;42.688;23.344;2023-09-19T16:29:57;95304.81;;;23.76;57.44
20027;BME280;10174;42.688;23.344;2023-09-19T16:32:22;95305.66;;;23.64;58.67
20027;BME280;10174;42.688;23.344;2023-09-19T16:34:48;95292.47;;;23.41;58.85
20027;BME280;10174;42.688;23.344;2023-09-19T16:37:13;95221.75;;;22.82;58.97
20027;BME280;10174;42.688;23.344;2023-09-19T16:39:42;95212.66;;;22.53;60.18
20027;BME280;10174;42.688;23.344;2023-09-19T16:42:08;95262.69;;;22.66;60.28
20027;BME280;10174;42.688;23.344;2023-09-19T16:44:34;95289.63;;;22.76;61.33
20027;BME280;10174;42.688;23.344;2023-09-19T16:47:00;95308.81;;;22.76;61.77
20027;BME280;10174;42.688;23.344;2023-09-19T16:49:28;95251.84;;;22.32;62.64
20027;BME280;10174;42.688;23.344;2023-09-19T16:51:54;95323.16;;;22.73;62.52
20027;BME280;10174;42.688;23.344;2023-09-19T16:54:19;95300.56;;;22.51;63.10
20027;BME280;10174;42.688;23.344;2023-09-19T16:56:45;95308.78;;;22.51;63.74
20027;BME280;10174;42.688;23.344;2023-09-19T16:59:10;95299.88;;;22.42;64.30
20027;BME280;10174;42.688;23.344;2023-09-19T17:01:36;95293.88;;;22.28;64.65
20027;BME280;10174;42.688;23.344;2023-09-19T17:04:02;95295.97;;;22.43;64.42
20027;BME280;10174;42.688;23.344;2023-09-19T17:06:27;95295.53;;;22.41;64.49
20027;BME280;10174;42.688;23.344;2023-09-19T17:08:53;95315.38;;;22.50;64.34
20027;BME280;10174;42.688;23.344;2023-09-19T17:11:20;95324.50;;;22.42;64.61
20027;BME280;10174;42.688;23.344;2023-09-19T17:13:47;95321.06;;;22.33;65.08
20027;BME280;10174;42.688;23.344;2023-09-19T17:16:13;95305.97;;;22.27;65.41
20027;BME280;10174;42.688;23.344;2023-09-19T17:18:45;95240.84;;;21.74;65.22
20027;BME280;10174;42.688;23.344;2023-09-19T17:21:11;95328.78;;;22.31;66.19
20027;BME280;10174;42.688;23.344;2023-09-19T17:23:39;95321.91;;;22.24;66.45
20027;BME280;10174;42.688;23.344;2023-09-19T17:26:10;95328.59;;;22.36;66.55
20027;BME280;10174;42.688;23.344;2023-09-19T17:28:36;95327.50;;;22.28;66.62
20027;BME280;10174;42.688;23.344;2023-09-19T17:31:08;95295.41;;;22.04;66.29
20027;BME280;10174;42.688;23.344;2023-09-19T17:33:37;95319.59;;;22.14;66.90
20027;BME280;10174;42.688;23.344;2023-09-19T17:38:32;95306.13;;;22.09;65.67
20027;BME280;10174;42.688;23.344;2023-09-19T17:41:02;95328.72;;;22.18;66.02
20027;BME280;10174;42.688;23.344;2023-09-19T17:43:28;95341.72;;;22.21;66.15
20027;BME280;10174;42.688;23.344;2023-09-19T17:45:54;95343.75;;;22.12;66.49
20027;BME280;10174;42.688;23.344;2023-09-19T17:48:19;95328.22;;;22.04;67.46
20027;BME280;10174;42.688;23.344;2023-09-19T17:50:44;95352.22;;;22.19;66.99
20027;BME280;10174;42.688;23.344;2023-09-19T17:53:10;95351.75;;;22.17;67.06
20027;BME280;10174;42.688;23.344;2023-09-19T17:55:37;95332.44;;;22.01;66.95
20027;BME280;10174;42.688;23.344;2023-09-19T17:58:03;95349.69;;;22.14;67.34
20027;BME280;10174;42.688;23.344;2023-09-19T18:00:28;95328.00;;;22.09;66.64
20027;BME280;10174;42.688;23.344;2023-09-19T18:02:54;95352.88;;;22.16;66.71
20027;BME280;10174;42.688;23.344;2023-09-19T18:05:20;95365.91;;;22.19;67.83
20027;BME280;10174;42.688;23.344;2023-09-19T18:07:46;95352.66;;;22.21;68.58
20027;BME280;10174;42.688;23.344;2023-09-19T18:10:13;95359.81;;;22.14;69.49
20027;BME280;10174;42.688;23.344;2023-09-19T18:12:40;95367.91;;;22.10;68.88
20027;BME280;10174;42.688;23.344;2023-09-19T18:15:07;95361.50;;;22.06;69.99
20027;BME280;10174;42.688;23.344;2023-09-19T18:17:33;95357.81;;;22.02;69.68
20027;BME280;10174;42.688;23.344;2023-09-19T18:20:01;95347.50;;;21.86;69.08
20027;BME280;10174;42.688;23.344;2023-09-19T18:22:29;95345.44;;;21.83;69.21
20027;BME280;10174;42.688;23.344;2023-09-19T18:24:54;95367.13;;;21.88;68.67
20027;BME280;10174;42.688;23.344;2023-09-19T18:27:20;95339.91;;;21.71;68.50
20027;BME280;10174;42.688;23.344;2023-09-19T18:29:45;95357.66;;;21.86;67.19
20027;BME280;10174;42.688;23.344;2023-09-19T18:32:12;95354.97;;;21.77;67.12
20027;BME280;10174;42.688;23.344;2023-09-19T18:34:37;95372.31;;;21.81;65.75
20027;BME280;10174;42.688;23.344;2023-09-19T18:37:03;95369.81;;;21.76;66.58
20027;BME280;10174;42.688;23.344;2023-09-19T18:39:29;95301.16;;;21.27;65.87
20027;BME280;10174;42.688;23.344;2023-09-19T18:41:55;95383.94;;;21.78;66.23
20027;BME280;10174;42.688;23.344;2023-09-19T18:44:20;95383.81;;;21.75;65.99
20027;BME280;10174;42.688;23.344;2023-09-19T18:46:46;95395.53;;;21.75;66.30
20027;BME280;10174;42.688;23.344;2023-09-19T18:49:13;95367.38;;;21.53;65.69
20027;BME280;10174;42.688;23.344;2023-09-19T18:51:39;95407.34;;;21.67;65.98
20027;BME280;10174;42.688;23.344;2023-09-19T18:54:06;95322.41;;;21.21;65.56
20027;BME280;10174;42.688;23.344;2023-09-19T18:56:31;95398.47;;;21.70;66.01
20027;BME280;10174;42.688;23.344;2023-09-19T18:58:57;95390.19;;;21.58;66.36
20027;BME280;10174;42.688;23.344;2023-09-19T19:01:22;95391.03;;;21.49;65.50
20027;BME280;10174;42.688;23.344;2023-09-19T19:03:51;95353.88;;;21.27;65.47
20027;BME280;10174;42.688;23.344;2023-09-19T19:06:17;95396.50;;;21.49;65.21
20027;BME280;10174;42.688;23.344;2023-09-19T19:08:44;95413.63;;;21.59;65.36
20027;BME280;10174;42.688;23.344;2023-09-19T19:11:12;95399.22;;;21.49;64.87
20027;BME280;10174;42.688;23.344;2023-09-19T19:13:40;95335.31;;;21.12;64.78
20027;BME280;10174;42.688;23.344;2023-09-19T19:16:06;95383.19;;;21.39;64.75
20027;BME280;10174;42.688;23.344;2023-09-19T19:18:36;95386.84;;;21.52;64.13
20027;BME280;10174;42.688;23.344;2023-09-19T19:21:03;95390.94;;;21.67;63.52
20027;BME280;10174;42.688;23.344;2023-09-19T19:23:30;95386.97;;;21.56;65.00
20027;BME280;10174;42.688;23.344;2023-09-19T19:25:56;95400.31;;;21.48;64.79
20027;BME280;10174;42.688;23.344;2023-09-19T19:28:30;95391.88;;;21.41;64.96
20027;BME280;10174;42.688;23.344;2023-09-19T19:30:55;95397.84;;;21.34;65.13
20027;BME280;10174;42.688;23.344;2023-09-19T19:33:21;95416.63;;;21.36;64.94
20027;BME280;10174;42.688;23.344;2023-09-19T19:35:47;95404.94;;;21.27;65.15
20027;BME280;10174;42.688;23.344;2023-09-19T19:38:13;95407.69;;;21.27;65.10
20027;BME280;10174;42.688;23.344;2023-09-19T19:40:40;95398.72;;;21.17;65.11
20027;BME280;10174;42.688;23.344;2023-09-19T19:43:06;95413.44;;;21.34;64.63
20027;BME280;10174;42.688;23.344;2023-09-19T19:45:31;95415.22;;;21.30;65.20
20027;BME280;10174;42.688;23.344;2023-09-19T19:47:57;95424.38;;;21.34;65.05
20027;BME280;10174;42.688;23.344;2023-09-19T19:50:23;95409.66;;;21.17;65.05
20027;BME280;10174;42.688;23.344;2023-09-19T19:52:51;95423.31;;;21.17;65.23
20027;BME280;10174;42.688;23.344;2023-09-19T19:55:19;95437.91;;;21.22;65.10
20027;BME280;10174;42.688;23.344;2023-09-19T19:57:49;95439.44;;;21.10;65.33
20027;BME280;10174;42.688;23.344;2023-09-19T20:00:14;95449.19;;;21.11;64.71
20027;BME280;10174;42.688;23.344;2023-09-19T20:02:45;95464.16;;;21.05;64.66
20027;BME280;10174;42.688;23.344;2023-09-19T20:05:11;95483.28;;;21.05;64.87
20027;BME280;10174;42.688;23.344;2023-09-19T20:07:37;95503.50;;;21.13;64.80